sensor_id;sensor_type;location;lat;lon;timestamp;P1;durP1;ratioP1;P2;durP2;ratioP2
77876;SDS011;67251;50.844;7.978;2023-05-17T00:00:46;5.05;;;1.85;;
77876;SDS011;67251;50.844;7.978;2023-05-17T00:03:12;5.53;;;1.77;;
77876;SDS011;67251;50.844;7.978;2023-05-17T00:05:37;5.18;;;1.92;;
77876;SDS011;67251;50.844;7.978;2023-05-17T00:08:02;6.05;;;1.70;;
77876;SDS011;67251;50.844;7.978;2023-05-17T00:10:28;5.10;;;1.48;;
77876;SDS011;67251;50.844;7.978;2023-05-17T00:12:53;6.18;;;1.50;;
77876;SDS011;67251;50.844;7.978;2023-05-17T00:15:19;6.68;;;1.60;;
77876;SDS011;67251;50.844;7.978;2023-05-17T00:17:44;8.30;;;1.90;;
77876;SDS011;67251;50.844;7.978;2023-05-17T00:20:10;5.05;;;1.67;;
77876;SDS011;67251;50.844;7.978;2023-05-17T00:22:35;5.03;;;1.50;;
77876;SDS011;67251;50.844;7.978;2023-05-17T00:25:01;4.75;;;1.40;;
77876;SDS011;67251;50.844;7.978;2023-05-17T00:27:27;7.57;;;1.90;;
77876;SDS011;67251;50.844;7.978;2023-05-17T00:29:52;7.40;;;1.73;;
77876;SDS011;67251;50.844;7.978;2023-05-17T00:32:17;6.70;;;1.77;;
77876;SDS011;67251;50.844;7.978;2023-05-17T00:34:43;4.53;;;1.60;;
77876;SDS011;67251;50.844;7.978;2023-05-17T00:37:08;8.75;;;2.05;;
77876;SDS011;67251;50.844;7.978;2023-05-17T00:39:33;5.10;;;1.45;;
77876;SDS011;67251;50.844;7.978;2023-05-17T00:41:59;4.60;;;1.77;;
77876;SDS011;67251;50.844;7.978;2023-05-17T00:44:25;6.95;;;1.80;;
77876;SDS011;67251;50.844;7.978;2023-05-17T00:46:51;6.53;;;1.88;;
77876;SDS011;67251;50.844;7.978;2023-05-17T00:49:16;6.03;;;1.90;;
77876;SDS011;67251;50.844;7.978;2023-05-17T00:51:42;4.45;;;1.35;;
77876;SDS011;67251;50.844;7.978;2023-05-17T00:54:08;5.13;;;1.35;;
77876;SDS011;67251;50.844;7.978;2023-05-17T00:56:34;6.72;;;1.70;;
77876;SDS011;67251;50.844;7.978;2023-05-17T00:58:59;5.80;;;1.30;;
77876;SDS011;67251;50.844;7.978;2023-05-17T01:01:28;9.38;;;1.92;;
77876;SDS011;67251;50.844;7.978;2023-05-17T01:03:54;5.00;;;1.65;;
77876;SDS011;67251;50.844;7.978;2023-05-17T01:06:20;6.28;;;1.90;;
77876;SDS011;67251;50.844;7.978;2023-05-17T01:08:46;5.93;;;1.90;;
77876;SDS011;67251;50.844;7.978;2023-05-17T01:13:51;6.82;;;2.03;;
77876;SDS011;67251;50.844;7.978;2023-05-17T01:22:16;5.15;;;1.30;;
77876;SDS011;67251;50.844;7.978;2023-05-17T01:27:25;7.13;;;1.58;;
77876;SDS011;67251;50.844;7.978;2023-05-17T01:29:53;4.82;;;1.55;;
77876;SDS011;67251;50.844;7.978;2023-05-17T01:32:21;4.85;;;1.60;;
77876;SDS011;67251;50.844;7.978;2023-05-17T01:34:48;4.93;;;1.40;;
77876;SDS011;67251;50.844;7.978;2023-05-17T01:37:14;5.10;;;1.48;;
77876;SDS011;67251;50.844;7.978;2023-05-17T01:39:39;4.85;;;1.60;;
77876;SDS011;67251;50.844;7.978;2023-05-17T01:42:21;7.03;;;1.83;;
77876;SDS011;67251;50.844;7.978;2023-05-17T01:53:38;5.75;;;1.73;;
77876;SDS011;67251;50.844;7.978;2023-05-17T01:56:15;6.30;;;1.40;;
77876;SDS011;67251;50.844;7.978;2023-05-17T01:58:46;5.30;;;1.60;;
77876;SDS011;67251;50.844;7.978;2023-05-17T02:01:15;7.72;;;2.20;;
77876;SDS011;67251;50.844;7.978;2023-05-17T02:03:46;7.13;;;1.60;;
77876;SDS011;67251;50.844;7.978;2023-05-17T02:06:13;4.80;;;1.85;;
77876;SDS011;67251;50.844;7.978;2023-05-17T02:08:38;5.75;;;2.08;;
77876;SDS011;67251;50.844;7.978;2023-05-17T02:11:04;5.47;;;1.63;;
77876;SDS011;67251;50.844;7.978;2023-05-17T02:13:29;4.20;;;1.60;;
77876;SDS011;67251;50.844;7.978;2023-05-17T02:15:58;6.55;;;2.10;;
77876;SDS011;67251;50.844;7.978;2023-05-17T02:18:24;8.25;;;1.80;;
77876;SDS011;67251;50.844;7.978;2023-05-17T02:20:50;5.45;;;1.63;;
77876;SDS011;67251;50.844;7.978;2023-05-17T02:23:16;5.80;;;1.70;;
77876;SDS011;67251;50.844;7.978;2023-05-17T02:25:41;6.90;;;1.80;;
77876;SDS011;67251;50.844;7.978;2023-05-17T02:28:06;6.80;;;1.60;;
77876;SDS011;67251;50.844;7.978;2023-05-17T02:30:32;4.85;;;1.58;;
77876;SDS011;67251;50.844;7.978;2023-05-17T02:32:57;4.65;;;1.55;;
77876;SDS011;67251;50.844;7.978;2023-05-17T02:35:23;6.35;;;1.60;;
77876;SDS011;67251;50.844;7.978;2023-05-17T02:37:48;5.88;;;2.03;;
77876;SDS011;67251;50.844;7.978;2023-05-17T02:40:13;5.78;;;1.98;;
77876;SDS011;67251;50.844;7.978;2023-05-17T02:42:39;7.45;;;2.10;;
77876;SDS011;67251;50.844;7.978;2023-05-17T02:45:04;5.97;;;1.88;;
77876;SDS011;67251;50.844;7.978;2023-05-17T02:47:30;7.57;;;2.08;;
77876;SDS011;67251;50.844;7.978;2023-05-17T02:49:55;4.47;;;1.67;;
77876;SDS011;67251;50.844;7.978;2023-05-17T02:52:21;6.25;;;1.63;;
77876;SDS011;67251;50.844;7.978;2023-05-17T02:54:46;5.63;;;1.85;;
77876;SDS011;67251;50.844;7.978;2023-05-17T02:57:12;8.27;;;1.95;;
77876;SDS011;67251;50.844;7.978;2023-05-17T02:59:37;5.00;;;1.60;;
77876;SDS011;67251;50.844;7.978;2023-05-17T03:02:03;8.27;;;1.80;;
77876;SDS011;67251;50.844;7.978;2023-05-17T03:04:29;6.03;;;1.88;;
77876;SDS011;67251;50.844;7.978;2023-05-17T03:06:54;5.95;;;1.77;;
77876;SDS011;67251;50.844;7.978;2023-05-17T03:09:19;8.43;;;2.08;;
77876;SDS011;67251;50.844;7.978;2023-05-17T03:11:45;6.00;;;1.70;;
77876;SDS011;67251;50.844;7.978;2023-05-17T03:14:10;6.68;;;1.80;;
77876;SDS011;67251;50.844;7.978;2023-05-17T03:16:36;6.78;;;2.05;;
77876;SDS011;67251;50.844;7.978;2023-05-17T03:19:01;6.57;;;1.73;;
77876;SDS011;67251;50.844;7.978;2023-05-17T03:21:27;5.07;;;1.60;;
77876;SDS011;67251;50.844;7.978;2023-05-17T03:23:52;6.40;;;1.98;;
77876;SDS011;67251;50.844;7.978;2023-05-17T03:26:17;6.90;;;1.92;;
77876;SDS011;67251;50.844;7.978;2023-05-17T03:28:43;4.78;;;1.55;;
77876;SDS011;67251;50.844;7.978;2023-05-17T03:31:09;5.63;;;1.73;;
77876;SDS011;67251;50.844;7.978;2023-05-17T03:33:35;9.55;;;2.53;;
77876;SDS011;67251;50.844;7.978;2023-05-17T03:36:01;7.45;;;1.70;;
77876;SDS011;67251;50.844;7.978;2023-05-17T03:38:27;9.15;;;2.30;;
77876;SDS011;67251;50.844;7.978;2023-05-17T03:40:53;5.43;;;1.55;;
77876;SDS011;67251;50.844;7.978;2023-05-17T03:43:18;6.10;;;1.90;;
77876;SDS011;67251;50.844;7.978;2023-05-17T03:45:44;5.53;;;1.73;;
77876;SDS011;67251;50.844;7.978;2023-05-17T03:48:09;5.15;;;2.20;;
77876;SDS011;67251;50.844;7.978;2023-05-17T03:50:35;5.50;;;1.70;;
77876;SDS011;67251;50.844;7.978;2023-05-17T03:53:00;5.50;;;1.90;;
77876;SDS011;67251;50.844;7.978;2023-05-17T03:55:25;6.32;;;2.40;;
77876;SDS011;67251;50.844;7.978;2023-05-17T03:57:51;7.72;;;2.28;;
77876;SDS011;67251;50.844;7.978;2023-05-17T04:00:16;6.15;;;2.00;;
77876;SDS011;67251;50.844;7.978;2023-05-17T04:02:46;5.53;;;1.80;;
77876;SDS011;67251;50.844;7.978;2023-05-17T04:05:12;7.72;;;2.30;;
77876;SDS011;67251;50.844;7.978;2023-05-17T04:07:37;8.98;;;2.40;;
77876;SDS011;67251;50.844;7.978;2023-05-17T04:10:03;9.57;;;2.35;;
77876;SDS011;67251;50.844;7.978;2023-05-17T04:12:29;7.80;;;2.40;;
77876;SDS011;67251;50.844;7.978;2023-05-17T04:14:54;7.25;;;2.22;;
77876;SDS011;67251;50.844;7.978;2023-05-17T04:17:20;7.82;;;2.33;;
77876;SDS011;67251;50.844;7.978;2023-05-17T04:19:45;8.52;;;2.25;;
77876;SDS011;67251;50.844;7.978;2023-05-17T04:22:11;6.07;;;2.33;;
77876;SDS011;67251;50.844;7.978;2023-05-17T04:24:36;9.73;;;2.47;;
77876;SDS011;67251;50.844;7.978;2023-05-17T04:27:01;10.20;;;2.42;;
77876;SDS011;67251;50.844;7.978;2023-05-17T04:29:28;7.70;;;2.53;;
77876;SDS011;67251;50.844;7.978;2023-05-17T04:31:54;7.88;;;2.10;;
77876;SDS011;67251;50.844;7.978;2023-05-17T04:34:19;5.68;;;2.03;;
77876;SDS011;67251;50.844;7.978;2023-05-17T04:36:47;6.30;;;2.33;;
77876;SDS011;67251;50.844;7.978;2023-05-17T04:39:12;9.75;;;2.28;;
77876;SDS011;67251;50.844;7.978;2023-05-17T04:41:38;5.45;;;1.60;;
77876;SDS011;67251;50.844;7.978;2023-05-17T04:44:04;4.78;;;2.13;;
77876;SDS011;67251;50.844;7.978;2023-05-17T04:46:30;4.63;;;1.95;;
77876;SDS011;67251;50.844;7.978;2023-05-17T04:48:56;5.75;;;1.92;;
77876;SDS011;67251;50.844;7.978;2023-05-17T04:51:22;6.78;;;2.33;;
77876;SDS011;67251;50.844;7.978;2023-05-17T04:53:47;5.18;;;1.95;;
77876;SDS011;67251;50.844;7.978;2023-05-17T04:56:12;8.77;;;2.28;;
77876;SDS011;67251;50.844;7.978;2023-05-17T04:58:38;7.40;;;2.33;;
77876;SDS011;67251;50.844;7.978;2023-05-17T05:01:03;5.55;;;1.88;;
77876;SDS011;67251;50.844;7.978;2023-05-17T05:03:29;7.05;;;1.77;;
77876;SDS011;67251;50.844;7.978;2023-05-17T05:05:55;5.47;;;2.03;;
77876;SDS011;67251;50.844;7.978;2023-05-17T05:08:20;6.13;;;2.10;;
77876;SDS011;67251;50.844;7.978;2023-05-17T05:10:46;6.50;;;2.10;;
77876;SDS011;67251;50.844;7.978;2023-05-17T05:13:11;7.40;;;2.13;;
77876;SDS011;67251;50.844;7.978;2023-05-17T05:15:36;6.97;;;1.90;;
77876;SDS011;67251;50.844;7.978;2023-05-17T05:18:02;8.85;;;2.05;;
77876;SDS011;67251;50.844;7.978;2023-05-17T05:20:28;7.68;;;2.17;;
77876;SDS011;67251;50.844;7.978;2023-05-17T05:22:56;5.68;;;1.95;;
77876;SDS011;67251;50.844;7.978;2023-05-17T05:25:22;6.22;;;2.25;;
77876;SDS011;67251;50.844;7.978;2023-05-17T05:27:48;5.38;;;1.90;;
77876;SDS011;67251;50.844;7.978;2023-05-17T05:30:13;6.97;;;3.00;;
77876;SDS011;67251;50.844;7.978;2023-05-17T05:32:46;7.38;;;2.20;;
77876;SDS011;67251;50.844;7.978;2023-05-17T05:35:15;8.30;;;2.20;;
77876;SDS011;67251;50.844;7.978;2023-05-17T05:37:41;11.07;;;2.05;;
77876;SDS011;67251;50.844;7.978;2023-05-17T05:40:07;7.15;;;2.13;;
77876;SDS011;67251;50.844;7.978;2023-05-17T05:42:33;8.00;;;2.38;;
77876;SDS011;67251;50.844;7.978;2023-05-17T05:44:59;7.63;;;2.25;;
77876;SDS011;67251;50.844;7.978;2023-05-17T05:47:24;6.32;;;2.38;;
77876;SDS011;67251;50.844;7.978;2023-05-17T05:49:50;7.82;;;2.40;;
77876;SDS011;67251;50.844;7.978;2023-05-17T05:52:15;8.52;;;2.80;;
77876;SDS011;67251;50.844;7.978;2023-05-17T05:54:40;6.88;;;2.75;;
77876;SDS011;67251;50.844;7.978;2023-05-17T05:57:06;10.25;;;2.45;;
77876;SDS011;67251;50.844;7.978;2023-05-17T05:59:31;10.20;;;2.50;;
77876;SDS011;67251;50.844;7.978;2023-05-17T06:01:57;7.10;;;2.00;;
77876;SDS011;67251;50.844;7.978;2023-05-17T06:04:22;6.55;;;2.08;;
77876;SDS011;67251;50.844;7.978;2023-05-17T06:06:49;7.38;;;2.47;;
77876;SDS011;67251;50.844;7.978;2023-05-17T06:09:14;8.75;;;2.95;;
77876;SDS011;67251;50.844;7.978;2023-05-17T06:11:40;7.10;;;2.08;;
77876;SDS011;67251;50.844;7.978;2023-05-17T06:14:05;7.45;;;2.50;;
77876;SDS011;67251;50.844;7.978;2023-05-17T06:16:31;8.23;;;2.33;;
77876;SDS011;67251;50.844;7.978;2023-05-17T06:18:57;8.15;;;2.22;;
77876;SDS011;67251;50.844;7.978;2023-05-17T06:21:22;8.05;;;2.33;;
77876;SDS011;67251;50.844;7.978;2023-05-17T06:23:48;6.47;;;2.13;;
77876;SDS011;67251;50.844;7.978;2023-05-17T06:26:13;6.93;;;2.28;;
77876;SDS011;67251;50.844;7.978;2023-05-17T06:28:39;6.05;;;2.50;;
77876;SDS011;67251;50.844;7.978;2023-05-17T06:31:04;8.30;;;2.30;;
77876;SDS011;67251;50.844;7.978;2023-05-17T06:33:29;7.72;;;2.38;;
77876;SDS011;67251;50.844;7.978;2023-05-17T06:35:55;10.93;;;2.67;;
77876;SDS011;67251;50.844;7.978;2023-05-17T06:38:23;5.43;;;2.30;;
77876;SDS011;67251;50.844;7.978;2023-05-17T06:40:52;7.38;;;2.30;;
77876;SDS011;67251;50.844;7.978;2023-05-17T06:43:19;8.77;;;2.85;;
77876;SDS011;67251;50.844;7.978;2023-05-17T06:45:45;8.68;;;2.40;;
77876;SDS011;67251;50.844;7.978;2023-05-17T06:48:11;7.15;;;2.40;;
77876;SDS011;67251;50.844;7.978;2023-05-17T06:50:36;6.43;;;2.30;;
77876;SDS011;67251;50.844;7.978;2023-05-17T06:53:02;11.20;;;2.72;;
77876;SDS011;67251;50.844;7.978;2023-05-17T06:55:28;8.52;;;2.60;;
77876;SDS011;67251;50.844;7.978;2023-05-17T06:57:53;6.57;;;2.40;;
77876;SDS011;67251;50.844;7.978;2023-05-17T07:00:19;7.70;;;2.22;;
77876;SDS011;67251;50.844;7.978;2023-05-17T07:02:45;10.75;;;2.72;;
77876;SDS011;67251;50.844;7.978;2023-05-17T07:05:10;8.35;;;2.50;;
77876;SDS011;67251;50.844;7.978;2023-05-17T07:07:36;8.13;;;2.20;;
77876;SDS011;67251;50.844;7.978;2023-05-17T07:10:02;8.60;;;2.40;;
77876;SDS011;67251;50.844;7.978;2023-05-17T07:12:29;8.23;;;2.30;;
77876;SDS011;67251;50.844;7.978;2023-05-17T07:14:54;4.72;;;1.90;;
77876;SDS011;67251;50.844;7.978;2023-05-17T07:17:20;5.88;;;1.88;;
77876;SDS011;67251;50.844;7.978;2023-05-17T07:19:45;6.63;;;1.50;;
77876;SDS011;67251;50.844;7.978;2023-05-17T07:22:14;6.07;;;1.73;;
77876;SDS011;67251;50.844;7.978;2023-05-17T07:24:40;2.95;;;1.08;;
77876;SDS011;67251;50.844;7.978;2023-05-17T07:27:06;3.80;;;1.10;;
77876;SDS011;67251;50.844;7.978;2023-05-17T07:29:31;5.15;;;1.00;;
77876;SDS011;67251;50.844;7.978;2023-05-17T07:31:56;3.58;;;0.80;;
77876;SDS011;67251;50.844;7.978;2023-05-17T07:34:22;3.63;;;0.90;;
77876;SDS011;67251;50.844;7.978;2023-05-17T07:36:47;5.72;;;1.13;;
77876;SDS011;67251;50.844;7.978;2023-05-17T07:39:12;4.43;;;1.20;;
77876;SDS011;67251;50.844;7.978;2023-05-17T07:41:38;4.38;;;1.27;;
77876;SDS011;67251;50.844;7.978;2023-05-17T07:44:03;4.25;;;1.30;;
77876;SDS011;67251;50.844;7.978;2023-05-17T07:46:29;5.13;;;1.20;;
77876;SDS011;67251;50.844;7.978;2023-05-17T07:48:54;6.15;;;1.00;;
77876;SDS011;67251;50.844;7.978;2023-05-17T07:51:19;3.80;;;1.20;;
77876;SDS011;67251;50.844;7.978;2023-05-17T07:53:45;4.78;;;1.15;;
77876;SDS011;67251;50.844;7.978;2023-05-17T07:56:11;5.68;;;1.27;;
77876;SDS011;67251;50.844;7.978;2023-05-17T07:58:36;7.55;;;1.20;;
77876;SDS011;67251;50.844;7.978;2023-05-17T08:01:01;5.50;;;1.90;;
77876;SDS011;67251;50.844;7.978;2023-05-17T08:03:27;4.63;;;1.10;;
77876;SDS011;67251;50.844;7.978;2023-05-17T08:05:52;4.30;;;1.10;;
77876;SDS011;67251;50.844;7.978;2023-05-17T08:08:18;4.50;;;1.02;;
77876;SDS011;67251;50.844;7.978;2023-05-17T08:10:46;4.25;;;1.15;;
77876;SDS011;67251;50.844;7.978;2023-05-17T08:13:11;5.10;;;1.20;;
77876;SDS011;67251;50.844;7.978;2023-05-17T08:15:37;6.03;;;2.05;;
77876;SDS011;67251;50.844;7.978;2023-05-17T08:18:02;6.78;;;1.20;;
77876;SDS011;67251;50.844;7.978;2023-05-17T08:20:27;5.75;;;1.15;;
77876;SDS011;67251;50.844;7.978;2023-05-17T08:22:53;4.72;;;1.20;;
77876;SDS011;67251;50.844;7.978;2023-05-17T08:25:19;6.18;;;1.20;;
77876;SDS011;67251;50.844;7.978;2023-05-17T08:27:47;8.52;;;1.40;;
77876;SDS011;67251;50.844;7.978;2023-05-17T08:30:12;5.43;;;1.23;;
77876;SDS011;67251;50.844;7.978;2023-05-17T08:32:38;7.95;;;1.40;;
77876;SDS011;67251;50.844;7.978;2023-05-17T08:35:03;4.95;;;1.30;;
77876;SDS011;67251;50.844;7.978;2023-05-17T08:37:29;6.20;;;1.40;;
77876;SDS011;67251;50.844;7.978;2023-05-17T08:39:57;4.35;;;1.20;;
77876;SDS011;67251;50.844;7.978;2023-05-17T08:42:23;7.30;;;1.48;;
77876;SDS011;67251;50.844;7.978;2023-05-17T08:44:51;5.72;;;1.40;;
77876;SDS011;67251;50.844;7.978;2023-05-17T08:47:17;8.07;;;1.50;;
77876;SDS011;67251;50.844;7.978;2023-05-17T08:49:50;6.53;;;1.25;;
77876;SDS011;67251;50.844;7.978;2023-05-17T08:52:18;5.90;;;1.38;;
77876;SDS011;67251;50.844;7.978;2023-05-17T08:54:45;6.90;;;1.25;;
77876;SDS011;67251;50.844;7.978;2023-05-17T08:57:11;4.85;;;1.17;;
77876;SDS011;67251;50.844;7.978;2023-05-17T08:59:38;7.05;;;1.02;;
77876;SDS011;67251;50.844;7.978;2023-05-17T09:02:04;5.85;;;1.48;;
77876;SDS011;67251;50.844;7.978;2023-05-17T09:04:31;7.93;;;1.63;;
77876;SDS011;67251;50.844;7.978;2023-05-17T09:06:57;6.70;;;1.38;;
77876;SDS011;67251;50.844;7.978;2023-05-17T09:09:22;7.00;;;1.20;;
77876;SDS011;67251;50.844;7.978;2023-05-17T09:11:48;8.18;;;1.42;;
77876;SDS011;67251;50.844;7.978;2023-05-17T09:14:14;6.32;;;1.00;;
77876;SDS011;67251;50.844;7.978;2023-05-17T09:16:43;9.35;;;1.52;;
77876;SDS011;67251;50.844;7.978;2023-05-17T09:19:08;4.28;;;1.05;;
77876;SDS011;67251;50.844;7.978;2023-05-17T09:21:40;3.92;;;0.90;;
77876;SDS011;67251;50.844;7.978;2023-05-17T09:24:10;6.25;;;1.15;;
77876;SDS011;67251;50.844;7.978;2023-05-17T09:26:37;5.05;;;1.05;;
77876;SDS011;67251;50.844;7.978;2023-05-17T09:29:12;6.35;;;1.35;;
77876;SDS011;67251;50.844;7.978;2023-05-17T09:31:41;6.88;;;1.23;;
77876;SDS011;67251;50.844;7.978;2023-05-17T09:34:08;6.10;;;1.40;;
77876;SDS011;67251;50.844;7.978;2023-05-17T09:36:34;4.80;;;1.10;;
77876;SDS011;67251;50.844;7.978;2023-05-17T09:39:04;5.53;;;1.52;;
77876;SDS011;67251;50.844;7.978;2023-05-17T09:41:32;6.47;;;1.40;;
77876;SDS011;67251;50.844;7.978;2023-05-17T09:44:06;7.20;;;1.45;;
77876;SDS011;67251;50.844;7.978;2023-05-17T09:46:33;5.30;;;1.63;;
77876;SDS011;67251;50.844;7.978;2023-05-17T09:49:02;4.45;;;0.82;;
77876;SDS011;67251;50.844;7.978;2023-05-17T09:51:34;4.63;;;1.10;;
77876;SDS011;67251;50.844;7.978;2023-05-17T09:54:05;6.30;;;1.45;;
77876;SDS011;67251;50.844;7.978;2023-05-17T09:56:31;4.35;;;1.35;;
77876;SDS011;67251;50.844;7.978;2023-05-17T09:58:57;4.13;;;1.00;;
77876;SDS011;67251;50.844;7.978;2023-05-17T10:01:28;5.30;;;1.20;;
77876;SDS011;67251;50.844;7.978;2023-05-17T10:03:58;4.55;;;1.17;;
77876;SDS011;67251;50.844;7.978;2023-05-17T10:06:27;4.30;;;1.13;;
77876;SDS011;67251;50.844;7.978;2023-05-17T10:08:56;6.13;;;1.10;;
77876;SDS011;67251;50.844;7.978;2023-05-17T10:11:26;6.15;;;1.40;;
77876;SDS011;67251;50.844;7.978;2023-05-17T10:14:10;6.70;;;1.42;;
77876;SDS011;67251;50.844;7.978;2023-05-17T10:16:42;4.25;;;0.93;;
77876;SDS011;67251;50.844;7.978;2023-05-17T10:19:09;5.28;;;0.90;;
77876;SDS011;67251;50.844;7.978;2023-05-17T10:21:35;6.18;;;1.30;;
77876;SDS011;67251;50.844;7.978;2023-05-17T10:24:03;5.93;;;1.10;;
77876;SDS011;67251;50.844;7.978;2023-05-17T10:26:30;5.45;;;1.20;;
77876;SDS011;67251;50.844;7.978;2023-05-17T10:28:56;4.97;;;1.10;;
77876;SDS011;67251;50.844;7.978;2023-05-17T10:31:29;4.63;;;1.20;;
77876;SDS011;67251;50.844;7.978;2023-05-17T10:33:57;5.68;;;1.20;;
77876;SDS011;67251;50.844;7.978;2023-05-17T10:36:24;5.20;;;1.00;;
77876;SDS011;67251;50.844;7.978;2023-05-17T10:38:50;6.15;;;1.77;;
77876;SDS011;67251;50.844;7.978;2023-05-17T10:41:17;4.65;;;0.95;;
77876;SDS011;67251;50.844;7.978;2023-05-17T10:43:45;6.40;;;1.45;;
77876;SDS011;67251;50.844;7.978;2023-05-17T10:46:15;4.70;;;1.20;;
77876;SDS011;67251;50.844;7.978;2023-05-17T10:48:46;4.93;;;1.20;;
77876;SDS011;67251;50.844;7.978;2023-05-17T10:51:14;6.07;;;1.42;;
77876;SDS011;67251;50.844;7.978;2023-05-17T10:56:29;4.55;;;1.20;;
77876;SDS011;67251;50.844;7.978;2023-05-17T11:02:07;4.68;;;1.02;;
77876;SDS011;67251;50.844;7.978;2023-05-17T11:12:39;5.35;;;0.80;;
77876;SDS011;67251;50.844;7.978;2023-05-17T11:22:55;6.07;;;1.20;;
77876;SDS011;67251;50.844;7.978;2023-05-17T11:25:26;4.10;;;0.95;;
77876;SDS011;67251;50.844;7.978;2023-05-17T11:27:56;5.32;;;1.13;;
77876;SDS011;67251;50.844;7.978;2023-05-17T11:30:27;4.63;;;1.08;;
77876;SDS011;67251;50.844;7.978;2023-05-17T11:32:57;4.80;;;0.90;;
77876;SDS011;67251;50.844;7.978;2023-05-17T11:35:26;8.75;;;1.30;;
77876;SDS011;67251;50.844;7.978;2023-05-17T11:37:53;4.43;;;1.00;;
77876;SDS011;67251;50.844;7.978;2023-05-17T11:40:36;4.80;;;0.93;;
77876;SDS011;67251;50.844;7.978;2023-05-17T11:43:13;5.40;;;1.40;;
77876;SDS011;67251;50.844;7.978;2023-05-17T11:48:12;4.80;;;1.27;;
77876;SDS011;67251;50.844;7.978;2023-05-17T11:50:39;5.55;;;1.05;;
77876;SDS011;67251;50.844;7.978;2023-05-17T11:53:08;5.93;;;1.40;;
77876;SDS011;67251;50.844;7.978;2023-05-17T11:55:37;3.33;;;0.65;;
77876;SDS011;67251;50.844;7.978;2023-05-17T11:58:22;4.43;;;1.10;;
77876;SDS011;67251;50.844;7.978;2023-05-17T12:00:53;5.25;;;1.25;;
77876;SDS011;67251;50.844;7.978;2023-05-17T12:03:21;3.72;;;1.10;;
77876;SDS011;67251;50.844;7.978;2023-05-17T12:06:00;4.20;;;1.63;;
77876;SDS011;67251;50.844;7.978;2023-05-17T12:08:26;4.85;;;1.38;;
77876;SDS011;67251;50.844;7.978;2023-05-17T12:10:51;6.47;;;1.55;;
77876;SDS011;67251;50.844;7.978;2023-05-17T12:13:17;4.28;;;1.17;;
77876;SDS011;67251;50.844;7.978;2023-05-17T12:15:46;5.93;;;1.20;;
77876;SDS011;67251;50.844;7.978;2023-05-17T12:18:15;5.15;;;1.55;;
77876;SDS011;67251;50.844;7.978;2023-05-17T12:20:56;3.88;;;1.02;;
77876;SDS011;67251;50.844;7.978;2023-05-17T12:23:26;6.32;;;1.40;;
77876;SDS011;67251;50.844;7.978;2023-05-17T12:26:09;5.57;;;1.30;;
77876;SDS011;67251;50.844;7.978;2023-05-17T12:28:51;6.43;;;1.50;;
77876;SDS011;67251;50.844;7.978;2023-05-17T12:31:17;5.05;;;0.93;;
77876;SDS011;67251;50.844;7.978;2023-05-17T12:38:40;4.05;;;0.95;;
77876;SDS011;67251;50.844;7.978;2023-05-17T12:41:08;4.00;;;1.08;;
77876;SDS011;67251;50.844;7.978;2023-05-17T12:43:39;4.57;;;1.10;;
77876;SDS011;67251;50.844;7.978;2023-05-17T12:46:05;5.88;;;1.10;;
77876;SDS011;67251;50.844;7.978;2023-05-17T12:48:36;6.25;;;1.23;;
77876;SDS011;67251;50.844;7.978;2023-05-17T12:51:09;7.43;;;1.30;;
77876;SDS011;67251;50.844;7.978;2023-05-17T12:53:40;4.22;;;0.90;;
77876;SDS011;67251;50.844;7.978;2023-05-17T12:56:07;3.75;;;1.10;;
77876;SDS011;67251;50.844;7.978;2023-05-17T12:58:38;4.47;;;1.00;;
77876;SDS011;67251;50.844;7.978;2023-05-17T13:01:03;3.22;;;1.00;;
77876;SDS011;67251;50.844;7.978;2023-05-17T13:03:31;4.35;;;1.10;;
77876;SDS011;67251;50.844;7.978;2023-05-17T13:05:58;4.97;;;1.17;;
77876;SDS011;67251;50.844;7.978;2023-05-17T13:08:31;3.58;;;1.10;;
77876;SDS011;67251;50.844;7.978;2023-05-17T13:11:04;5.88;;;1.10;;
77876;SDS011;67251;50.844;7.978;2023-05-17T13:13:33;4.55;;;1.02;;
77876;SDS011;67251;50.844;7.978;2023-05-17T13:15:59;4.35;;;1.00;;
77876;SDS011;67251;50.844;7.978;2023-05-17T13:18:25;7.10;;;1.15;;
77876;SDS011;67251;50.844;7.978;2023-05-17T13:20:50;5.50;;;1.30;;
77876;SDS011;67251;50.844;7.978;2023-05-17T13:23:15;5.50;;;1.13;;
77876;SDS011;67251;50.844;7.978;2023-05-17T13:25:41;5.05;;;1.45;;
77876;SDS011;67251;50.844;7.978;2023-05-17T13:28:07;6.38;;;1.20;;
77876;SDS011;67251;50.844;7.978;2023-05-17T13:30:32;5.93;;;1.38;;
77876;SDS011;67251;50.844;7.978;2023-05-17T13:32:57;5.55;;;1.30;;
77876;SDS011;67251;50.844;7.978;2023-05-17T13:35:23;6.00;;;1.23;;
77876;SDS011;67251;50.844;7.978;2023-05-17T13:37:48;5.82;;;1.17;;
77876;SDS011;67251;50.844;7.978;2023-05-17T13:40:14;3.90;;;1.00;;
77876;SDS011;67251;50.844;7.978;2023-05-17T13:42:39;4.47;;;1.10;;
77876;SDS011;67251;50.844;7.978;2023-05-17T13:45:05;6.25;;;1.25;;
77876;SDS011;67251;50.844;7.978;2023-05-17T13:47:33;6.40;;;1.30;;
77876;SDS011;67251;50.844;7.978;2023-05-17T13:49:59;2.90;;;0.80;;
77876;SDS011;67251;50.844;7.978;2023-05-17T13:52:25;6.07;;;1.73;;
77876;SDS011;67251;50.844;7.978;2023-05-17T13:54:51;7.18;;;1.73;;
77876;SDS011;67251;50.844;7.978;2023-05-17T13:57:16;6.03;;;1.33;;
77876;SDS011;67251;50.844;7.978;2023-05-17T13:59:41;5.47;;;1.33;;
77876;SDS011;67251;50.844;7.978;2023-05-17T14:02:07;5.53;;;1.40;;
77876;SDS011;67251;50.844;7.978;2023-05-17T14:04:33;5.00;;;1.13;;
77876;SDS011;67251;50.844;7.978;2023-05-17T14:06:59;2.97;;;0.98;;
77876;SDS011;67251;50.844;7.978;2023-05-17T14:09:27;4.53;;;1.20;;
77876;SDS011;67251;50.844;7.978;2023-05-17T14:11:56;6.15;;;1.30;;
77876;SDS011;67251;50.844;7.978;2023-05-17T14:14:22;4.05;;;0.90;;
77876;SDS011;67251;50.844;7.978;2023-05-17T14:16:50;4.22;;;1.20;;
77876;SDS011;67251;50.844;7.978;2023-05-17T14:19:15;4.35;;;1.20;;
77876;SDS011;67251;50.844;7.978;2023-05-17T14:21:41;5.03;;;1.38;;
77876;SDS011;67251;50.844;7.978;2023-05-17T14:24:06;7.60;;;1.30;;
77876;SDS011;67251;50.844;7.978;2023-05-17T14:26:32;5.05;;;1.40;;
77876;SDS011;67251;50.844;7.978;2023-05-17T14:28:57;3.72;;;0.88;;
77876;SDS011;67251;50.844;7.978;2023-05-17T14:31:25;6.30;;;1.30;;
77876;SDS011;67251;50.844;7.978;2023-05-17T14:33:53;5.55;;;1.25;;
77876;SDS011;67251;50.844;7.978;2023-05-17T14:36:19;6.43;;;1.50;;
77876;SDS011;67251;50.844;7.978;2023-05-17T14:38:44;6.90;;;2.30;;
77876;SDS011;67251;50.844;7.978;2023-05-17T14:41:10;4.65;;;1.20;;
77876;SDS011;67251;50.844;7.978;2023-05-17T14:43:35;6.00;;;1.20;;
77876;SDS011;67251;50.844;7.978;2023-05-17T14:46:00;4.57;;;1.50;;
77876;SDS011;67251;50.844;7.978;2023-05-17T14:48:26;4.70;;;1.02;;
77876;SDS011;67251;50.844;7.978;2023-05-17T14:50:51;7.68;;;1.95;;
77876;SDS011;67251;50.844;7.978;2023-05-17T14:53:17;5.00;;;1.38;;
77876;SDS011;67251;50.844;7.978;2023-05-17T14:55:42;6.22;;;1.20;;
77876;SDS011;67251;50.844;7.978;2023-05-17T14:58:08;3.85;;;1.08;;
77876;SDS011;67251;50.844;7.978;2023-05-17T15:00:37;4.47;;;1.38;;
77876;SDS011;67251;50.844;7.978;2023-05-17T15:03:02;5.80;;;1.33;;
77876;SDS011;67251;50.844;7.978;2023-05-17T15:05:27;4.80;;;1.23;;
77876;SDS011;67251;50.844;7.978;2023-05-17T15:07:53;5.32;;;1.20;;
77876;SDS011;67251;50.844;7.978;2023-05-17T15:10:18;6.30;;;1.30;;
77876;SDS011;67251;50.844;7.978;2023-05-17T15:12:43;6.90;;;1.52;;
77876;SDS011;67251;50.844;7.978;2023-05-17T15:15:09;4.72;;;1.05;;
77876;SDS011;67251;50.844;7.978;2023-05-17T15:17:36;4.35;;;1.20;;
77876;SDS011;67251;50.844;7.978;2023-05-17T15:20:01;7.30;;;1.52;;
77876;SDS011;67251;50.844;7.978;2023-05-17T15:22:27;6.03;;;1.40;;
77876;SDS011;67251;50.844;7.978;2023-05-17T15:24:53;4.70;;;1.23;;
77876;SDS011;67251;50.844;7.978;2023-05-17T15:27:19;5.65;;;1.52;;
77876;SDS011;67251;50.844;7.978;2023-05-17T15:29:44;7.88;;;1.38;;
77876;SDS011;67251;50.844;7.978;2023-05-17T15:32:10;5.07;;;1.15;;
77876;SDS011;67251;50.844;7.978;2023-05-17T15:34:35;4.28;;;1.40;;